createdAt,value
2023-04-08T00:01:22.660Z,9.60
2023-04-08T00:03:49.699Z,9.50
2023-04-08T00:06:16.536Z,9.50
2023-04-08T00:08:43.313Z,9.50
2023-04-08T00:11:10.105Z,9.50
2023-04-08T00:13:36.837Z,9.40
2023-04-08T00:16:03.801Z,9.50
2023-04-08T00:18:30.500Z,9.60
2023-04-08T00:20:57.330Z,9.60
2023-04-08T00:23:24.087Z,9.40
2023-04-08T00:25:51.149Z,9.30
2023-04-08T00:28:17.905Z,9.40
2023-04-08T00:30:44.663Z,9.40
2023-04-08T00:33:11.446Z,9.30
2023-04-08T00:35:38.301Z,9.40
2023-04-08T00:38:08.062Z,9.30
2023-04-08T00:40:37.334Z,9.30
2023-04-08T00:43:06.482Z,9.30
2023-04-08T00:45:35.015Z,9.30
2023-04-08T00:48:03.553Z,9.40
2023-04-08T00:50:30.700Z,9.30
2023-04-08T00:52:57.487Z,9.40
2023-04-08T00:55:24.347Z,9.40
2023-04-08T00:57:51.317Z,9.30
2023-04-08T01:00:18.187Z,9.30
2023-04-08T01:03:22.480Z,9.20
2023-04-08T01:06:32.029Z,9.20
2023-04-08T01:09:00.949Z,9.00
2023-04-08T01:11:31.214Z,9.00
2023-04-08T01:14:00.708Z,9.00
2023-04-08T01:16:28.239Z,8.90
2023-04-08T01:18:56.480Z,9.00
2023-04-08T01:21:24.880Z,9.00
2023-04-08T01:24:13.924Z,8.90
2023-04-08T01:26:41.625Z,8.80
2023-04-08T01:29:11.608Z,8.80
2023-04-08T01:31:42.695Z,8.80
2023-04-08T01:34:11.860Z,8.90
2023-04-08T01:36:40.485Z,8.90
2023-04-08T01:39:08.372Z,9.00
2023-04-08T01:41:36.735Z,9.00
2023-04-08T01:44:06.378Z,9.00
2023-04-08T01:46:34.597Z,8.90
2023-04-08T01:49:02.452Z,8.90
2023-04-08T01:51:32.267Z,8.80
2023-04-08T01:53:59.180Z,8.90
2023-04-08T01:56:32.978Z,8.90
2023-04-08T01:59:02.048Z,8.90
2023-04-08T02:01:32.619Z,8.90
2023-04-08T02:04:03.186Z,8.90
2023-04-08T02:06:33.567Z,8.90
2023-04-08T02:09:01.957Z,8.90
2023-04-08T02:11:29.295Z,8.90
2023-04-08T02:13:56.266Z,8.90
2023-04-08T02:16:36.800Z,8.80
2023-04-08T02:19:20.032Z,8.80
2023-04-08T02:21:55.230Z,8.70
2023-04-08T02:24:22.524Z,8.70
2023-04-08T02:26:52.040Z,8.60
2023-04-08T02:29:19.477Z,8.40
2023-04-08T02:31:47.125Z,8.40
2023-04-08T02:34:16.048Z,8.50
2023-04-08T02:36:46.038Z,8.60
2023-04-08T02:39:12.986Z,8.60
2023-04-08T02:41:39.788Z,8.60
2023-04-08T02:44:06.573Z,8.60
2023-04-08T02:46:33.353Z,8.60
2023-04-08T02:49:00.375Z,8.50
2023-04-08T02:51:27.930Z,8.40
2023-04-08T02:53:55.384Z,8.40
2023-04-08T02:56:22.685Z,8.40
2023-04-08T02:58:52.327Z,8.30
2023-04-08T03:01:19.391Z,8.40
2023-04-08T03:03:46.597Z,8.40
2023-04-08T03:06:13.482Z,8.30
2023-04-08T03:08:40.303Z,8.30
2023-04-08T03:11:07.177Z,8.30
2023-04-08T03:13:34.697Z,8.30
2023-04-08T03:16:01.618Z,8.20
2023-04-08T03:18:29.549Z,8.30
2023-04-08T03:20:56.437Z,8.20
2023-04-08T03:23:23.160Z,8.20
2023-04-08T03:25:51.452Z,8.20
2023-04-08T03:28:18.249Z,8.10
2023-04-08T03:30:45.312Z,8.10
2023-04-08T03:33:12.426Z,8.20
2023-04-08T03:35:39.247Z,8.20
2023-04-08T03:38:06.090Z,8.20
2023-04-08T03:40:32.862Z,8.30
2023-04-08T03:42:59.625Z,8.30
2023-04-08T03:45:26.440Z,8.30
2023-04-08T03:47:53.291Z,8.20
2023-04-08T03:50:20.198Z,8.10
2023-04-08T03:52:46.960Z,8.00
2023-04-08T03:55:13.651Z,8.20
2023-04-08T03:57:41.037Z,8.20
2023-04-08T04:00:08.941Z,8.30
2023-04-08T04:02:36.870Z,8.30
2023-04-08T04:05:04.157Z,8.20
2023-04-08T04:07:31.043Z,8.20
2023-04-08T04:09:57.934Z,8.10
2023-04-08T04:12:24.792Z,8.00
2023-04-08T04:14:51.605Z,8.00
2023-04-08T04:17:18.364Z,8.00
2023-04-08T04:19:45.204Z,8.10
2023-04-08T04:22:11.972Z,8.20
2023-04-08T04:24:38.721Z,8.20
2023-04-08T04:27:05.561Z,8.10
2023-04-08T04:29:32.506Z,8.10
2023-04-08T04:31:59.252Z,8.20
2023-04-08T04:34:26.019Z,8.20
2023-04-08T04:36:52.786Z,8.20
2023-04-08T04:39:19.619Z,8.30
2023-04-08T04:41:47.357Z,8.30
2023-04-08T04:44:14.049Z,8.30
2023-04-08T04:46:41.020Z,8.40
2023-04-08T04:49:07.784Z,8.40
2023-04-08T04:51:34.610Z,8.40
2023-04-08T04:54:01.366Z,8.40
2023-04-08T04:56:28.523Z,8.30
2023-04-08T04:58:55.263Z,8.30
2023-04-08T05:01:22.221Z,8.30
2023-04-08T05:03:50.488Z,8.30
2023-04-08T05:06:17.259Z,8.40
2023-04-08T05:08:44.009Z,8.30
2023-04-08T05:11:11.686Z,8.30
2023-04-08T05:13:38.458Z,8.30
2023-04-08T05:16:05.614Z,8.20
2023-04-08T05:18:32.326Z,8.20
2023-04-08T05:20:59.215Z,8.20
2023-04-08T05:23:26.033Z,8.20
2023-04-08T05:25:52.795Z,8.10
2023-04-08T05:28:19.883Z,8.20
2023-04-08T05:30:52.432Z,8.10
2023-04-08T05:33:19.445Z,8.10
2023-04-08T05:35:46.630Z,8.00
2023-04-08T05:38:13.410Z,7.90
2023-04-08T05:40:40.409Z,7.90
2023-04-08T05:43:07.165Z,7.80
2023-04-08T05:45:33.904Z,7.90
2023-04-08T05:48:02.773Z,7.90
2023-04-08T05:50:29.517Z,7.70
2023-04-08T05:52:56.261Z,7.70
2023-04-08T05:55:23.150Z,7.70
2023-04-08T05:57:49.847Z,7.70
2023-04-08T06:00:16.970Z,7.70
2023-04-08T06:02:43.952Z,7.70
2023-04-08T06:05:11.052Z,7.70
2023-04-08T06:07:37.891Z,7.80
2023-04-08T06:10:05.822Z,7.80
2023-04-08T06:12:37.167Z,7.80
2023-04-08T06:15:04.739Z,7.80
2023-04-08T06:17:31.568Z,7.70
2023-04-08T06:19:58.302Z,7.70
2023-04-08T06:22:25.098Z,7.70
2023-04-08T06:24:52.048Z,7.70
2023-04-08T06:27:18.834Z,7.70
2023-04-08T06:29:45.597Z,7.80
2023-04-08T06:32:12.746Z,7.80
2023-04-08T06:34:40.035Z,7.80
2023-04-08T06:37:07.497Z,7.80
2023-04-08T06:39:34.671Z,7.80
2023-04-08T06:42:01.605Z,7.80
2023-04-08T06:44:28.454Z,7.80
2023-04-08T06:46:56.362Z,7.80
2023-04-08T06:49:23.169Z,7.80
2023-04-08T06:51:50.374Z,7.80
2023-04-08T06:54:17.073Z,7.90
2023-04-08T06:56:43.826Z,7.90
2023-04-08T06:59:10.615Z,7.90
2023-04-08T07:01:37.506Z,7.90
2023-04-08T07:04:04.372Z,8.00
2023-04-08T07:06:31.097Z,7.90
2023-04-08T07:08:57.839Z,7.80
2023-04-08T07:11:24.744Z,7.80
2023-04-08T07:13:52.400Z,8.00
2023-04-08T07:16:19.196Z,8.10
2023-04-08T07:18:47.889Z,8.10
2023-04-08T07:21:14.753Z,8.10
2023-04-08T07:23:41.532Z,8.10
2023-04-08T07:26:08.477Z,8.10
2023-04-08T07:28:35.480Z,8.20
2023-04-08T07:31:15.112Z,8.30
2023-04-08T07:33:43.772Z,8.20
2023-04-08T07:36:15.181Z,8.20
2023-04-08T07:38:42.083Z,8.30
2023-04-08T07:41:08.860Z,8.20
2023-04-08T07:43:37.306Z,8.20
2023-04-08T07:46:07.829Z,8.20
2023-04-08T07:48:35.557Z,8.20
2023-04-08T07:51:11.318Z,8.10
2023-04-08T07:53:39.335Z,8.20
2023-04-08T07:56:18.155Z,8.10
2023-04-08T07:58:46.469Z,8.10
2023-04-08T08:01:22.896Z,8.10
2023-04-08T08:03:52.082Z,8.10
2023-04-08T08:06:19.595Z,8.10
2023-04-08T08:08:46.323Z,8.00
2023-04-08T08:11:13.236Z,8.20
2023-04-08T08:13:41.218Z,8.60
2023-04-08T08:16:12.029Z,9.00
2023-04-08T08:18:41.287Z,9.30
2023-04-08T08:21:09.159Z,9.60
2023-04-08T08:23:37.437Z,10.10
2023-04-08T08:26:09.922Z,10.40
2023-04-08T08:28:39.757Z,10.50
2023-04-08T08:31:07.043Z,10.50
2023-04-08T08:33:34.486Z,10.50
2023-04-08T08:36:01.596Z,10.80
2023-04-08T08:38:28.343Z,10.90
2023-04-08T08:40:57.215Z,11.00
2023-04-08T08:43:27.234Z,11.00
2023-04-08T08:45:55.062Z,11.10
2023-04-08T08:48:22.010Z,11.10
2023-04-08T08:50:48.877Z,11.30
2023-04-08T08:53:16.153Z,11.20
2023-04-08T08:56:13.430Z,11.50
2023-04-08T08:58:30.907Z,11.70
2023-04-08T09:00:57.617Z,11.60
2023-04-08T09:03:29.495Z,12.00
2023-04-08T09:06:04.077Z,12.20
2023-04-08T09:08:37.862Z,12.40
2023-04-08T09:11:12.478Z,12.60
2023-04-08T09:13:39.620Z,12.60
2023-04-08T09:16:12.834Z,12.80
2023-04-08T09:18:43.235Z,13.10
2023-04-08T09:21:11.731Z,13.20
2023-04-08T09:23:48.419Z,13.40
2023-04-08T09:26:24.496Z,13.40
2023-04-08T09:29:14.218Z,13.60
2023-04-08T09:31:42.574Z,13.60
2023-04-08T09:34:12.658Z,13.90
2023-04-08T09:36:39.511Z,13.90
2023-04-08T09:39:07.618Z,13.70
2023-04-08T09:41:36.049Z,13.80
2023-04-08T09:44:11.391Z,13.90
2023-04-08T09:46:50.789Z,13.90
2023-04-08T09:49:40.877Z,14.00
2023-04-08T09:52:24.878Z,14.00
2023-04-08T09:55:12.758Z,14.10
2023-04-08T09:58:27.710Z,14.10
2023-04-08T10:00:55.630Z,13.90
2023-04-08T10:03:36.078Z,14.00
2023-04-08T10:06:04.480Z,14.10
2023-04-08T10:08:32.936Z,14.20
2023-04-08T10:11:00.004Z,14.30
2023-04-08T10:13:28.806Z,14.30
2023-04-08T10:16:22.175Z,14.30
2023-04-08T10:18:53.835Z,14.20
2023-04-08T10:21:47.926Z,14.40
2023-04-08T10:24:14.730Z,14.20
2023-04-08T10:26:45.162Z,14.20
2023-04-08T10:29:17.927Z,14.20
2023-04-08T10:31:50.670Z,14.30
2023-04-08T10:34:22.726Z,14.20
2023-04-08T10:36:50.042Z,14.20
2023-04-08T10:39:17.364Z,14.30
2023-04-08T10:41:47.399Z,14.30
2023-04-08T10:44:24.080Z,14.20
2023-04-08T10:46:53.575Z,14.00
2023-04-08T10:49:31.973Z,14.20
2023-04-08T10:51:58.923Z,14.40
2023-04-08T10:54:27.244Z,14.50
2023-04-08T10:56:54.651Z,14.30
2023-04-08T10:59:32.351Z,14.30
2023-04-08T11:02:02.524Z,14.30
2023-04-08T11:04:29.946Z,14.20
2023-04-08T11:07:00.260Z,14.40
2023-04-08T11:09:27.461Z,14.60
2023-04-08T11:11:54.834Z,14.90
2023-04-08T11:14:23.642Z,15.10
2023-04-08T11:16:51.787Z,15.30
2023-04-08T11:19:20.554Z,15.30
2023-04-08T11:21:48.156Z,15.10
2023-04-08T11:24:16.858Z,15.00
2023-04-08T11:26:43.964Z,15.20
2023-04-08T11:29:17.615Z,15.20
2023-04-08T11:31:44.733Z,15.10
2023-04-08T11:34:11.664Z,15.00
2023-04-08T11:36:42.048Z,15.00
2023-04-08T11:39:12.209Z,14.80
2023-04-08T11:41:40.557Z,14.80
2023-04-08T11:44:08.455Z,14.80
2023-04-08T11:46:35.782Z,15.00
2023-04-08T11:49:09.981Z,15.30
2023-04-08T11:51:57.776Z,15.40
2023-04-08T11:54:33.587Z,15.20
2023-04-08T11:57:01.416Z,15.40
2023-04-08T11:59:29.620Z,15.70
2023-04-08T12:01:57.600Z,15.80
2023-04-08T12:04:24.705Z,16.10
2023-04-08T12:06:52.339Z,16.10
2023-04-08T12:09:22.155Z,16.40
2023-04-08T12:11:48.979Z,16.30
2023-04-08T12:14:15.986Z,15.90
2023-04-08T12:16:42.844Z,16.10
2023-04-08T12:19:09.748Z,16.30
2023-04-08T12:21:36.678Z,16.20
2023-04-08T12:24:05.006Z,16.30
2023-04-08T12:26:31.785Z,16.30
2023-04-08T12:28:58.549Z,16.50
2023-04-08T12:31:30.014Z,16.50
2023-04-08T12:33:56.939Z,16.70
2023-04-08T12:36:23.788Z,16.50
2023-04-08T12:38:52.045Z,16.00
2023-04-08T12:41:19.058Z,16.00
2023-04-08T12:43:45.819Z,15.90
2023-04-08T12:46:13.272Z,16.00
2023-04-08T12:48:40.837Z,15.50
2023-04-08T12:51:10.255Z,15.70
2023-04-08T12:53:37.200Z,15.90
2023-04-08T12:56:05.431Z,16.20
2023-04-08T12:58:32.209Z,16.20
2023-04-08T13:01:00.253Z,16.10
2023-04-08T13:03:30.294Z,16.10
2023-04-08T13:05:59.133Z,15.80
2023-04-08T13:08:26.088Z,15.70
2023-04-08T13:10:53.092Z,15.90
2023-04-08T13:13:19.942Z,15.90
2023-04-08T13:15:47.465Z,15.70
2023-04-08T13:18:14.253Z,15.60
2023-04-08T13:20:41.020Z,15.50
2023-04-08T13:23:07.897Z,15.50
2023-04-08T13:25:34.730Z,15.70
2023-04-08T13:28:01.473Z,15.60
2023-04-08T13:30:28.229Z,15.70
2023-04-08T13:32:55.210Z,15.80
2023-04-08T13:35:24.964Z,16.00
2023-04-08T13:37:53.225Z,16.20
2023-04-08T13:40:20.048Z,16.60
2023-04-08T13:42:47.851Z,17.00
2023-04-08T13:45:14.810Z,16.90
2023-04-08T13:47:41.625Z,17.00
2023-04-08T13:50:11.650Z,16.60
2023-04-08T13:52:38.457Z,16.50
2023-04-08T13:55:05.966Z,16.30
2023-04-08T13:57:32.847Z,16.30
2023-04-08T13:59:59.650Z,16.20
2023-04-08T14:02:26.965Z,16.40
2023-04-08T14:04:53.962Z,16.50
2023-04-08T14:07:20.789Z,16.70
2023-04-08T14:09:47.545Z,16.90
2023-04-08T14:12:14.225Z,17.10
2023-04-08T14:14:41.202Z,17.00
2023-04-08T14:17:08.030Z,16.70
2023-04-08T14:19:35.311Z,16.80
2023-04-08T14:22:02.065Z,17.00
2023-04-08T14:24:28.763Z,17.00
2023-04-08T14:26:55.586Z,16.90
2023-04-08T14:29:22.533Z,16.90
2023-04-08T14:31:49.319Z,17.00
2023-04-08T14:34:16.190Z,16.70
2023-04-08T14:36:42.979Z,16.40
2023-04-08T14:39:09.737Z,16.40
2023-04-08T14:41:38.505Z,16.50
2023-04-08T14:44:05.597Z,16.70
2023-04-08T14:46:32.425Z,16.60
2023-04-08T14:48:59.158Z,16.80
2023-04-08T14:51:25.855Z,16.60
2023-04-08T14:53:52.668Z,16.80
2023-04-08T14:56:22.117Z,17.10
2023-04-08T14:58:49.071Z,17.10
2023-04-08T15:01:16.006Z,17.20
2023-04-08T15:03:42.791Z,17.30
2023-04-08T15:06:09.573Z,17.30
2023-04-08T15:08:36.784Z,16.80
2023-04-08T15:11:03.617Z,16.70
2023-04-08T15:13:30.356Z,16.40
2023-04-08T15:15:57.165Z,16.30
2023-04-08T15:18:24.036Z,16.20
2023-04-08T15:20:50.811Z,16.20
2023-04-08T15:23:17.661Z,16.20
2023-04-08T15:25:44.380Z,16.20
2023-04-08T15:28:11.193Z,16.00
2023-04-08T15:30:38.021Z,16.00
2023-04-08T15:33:05.174Z,16.00
2023-04-08T15:35:32.783Z,16.00
2023-04-08T15:38:00.488Z,15.80
2023-04-08T15:40:27.382Z,16.10
2023-04-08T15:42:54.101Z,16.20
2023-04-08T15:45:22.124Z,16.20
2023-04-08T15:47:49.070Z,16.30
2023-04-08T15:50:17.175Z,16.20
2023-04-08T15:52:44.607Z,16.00
2023-04-08T15:55:11.785Z,16.10
2023-04-08T15:57:38.773Z,16.20
2023-04-08T16:00:12.106Z,16.20
2023-04-08T16:02:39.634Z,16.30
2023-04-08T16:05:07.312Z,16.20
2023-04-08T16:07:34.061Z,15.90
2023-04-08T16:10:00.917Z,15.90
2023-04-08T16:12:27.619Z,15.90
2023-04-08T16:14:54.765Z,15.90
2023-04-08T16:17:21.983Z,15.50
2023-04-08T16:19:54.282Z,15.50
2023-04-08T16:22:21.161Z,15.40
2023-04-08T16:24:47.966Z,15.60
2023-04-08T16:27:14.775Z,15.70
2023-04-08T16:29:42.121Z,15.70
2023-04-08T16:32:09.017Z,15.60
2023-04-08T16:34:36.152Z,15.70
2023-04-08T16:37:03.099Z,15.80
2023-04-08T16:39:36.900Z,15.70
2023-04-08T16:42:04.019Z,15.70
2023-04-08T16:44:32.113Z,15.70
2023-04-08T16:47:00.869Z,15.60
2023-04-08T16:49:27.674Z,15.60
2023-04-08T16:51:54.429Z,15.60
2023-04-08T16:54:21.162Z,15.70
2023-04-08T16:56:47.896Z,15.50
2023-04-08T16:59:14.668Z,15.60
2023-04-08T17:01:41.468Z,15.70
2023-04-08T17:04:08.281Z,15.60
2023-04-08T17:06:36.147Z,15.40
2023-04-08T17:09:04.090Z,15.50
2023-04-08T17:11:31.241Z,15.20
2023-04-08T17:13:58.617Z,15.10
2023-04-08T17:16:25.513Z,14.60
2023-04-08T17:18:52.539Z,14.40
2023-04-08T17:21:23.318Z,14.40
2023-04-08T17:23:52.535Z,14.40
2023-04-08T17:26:20.187Z,14.30
2023-04-08T17:28:47.126Z,14.20
2023-04-08T17:31:14.314Z,13.90
2023-04-08T17:33:41.563Z,13.90
2023-04-08T17:36:08.414Z,13.70
2023-04-08T17:38:39.549Z,13.60
2023-04-08T17:41:08.133Z,13.50
2023-04-08T17:43:35.254Z,13.60
2023-04-08T17:46:02.091Z,13.40
2023-04-08T17:48:30.729Z,13.50
2023-04-08T17:51:06.618Z,13.60
2023-04-08T17:53:35.093Z,13.50
2023-04-08T17:56:01.840Z,13.40
2023-04-08T17:58:28.733Z,13.40
2023-04-08T18:00:57.959Z,13.30
2023-04-08T18:03:24.785Z,13.50
2023-04-08T18:05:51.688Z,13.40
2023-04-08T18:08:18.956Z,13.50
2023-04-08T18:10:46.868Z,13.60
2023-04-08T18:13:13.868Z,13.50
2023-04-08T18:15:40.823Z,13.50
2023-04-08T18:18:07.564Z,13.50
2023-04-08T18:20:37.790Z,13.50
2023-04-08T18:23:04.872Z,13.40
2023-04-08T18:25:32.382Z,13.30
2023-04-08T18:27:59.518Z,13.40
2023-04-08T18:30:26.496Z,13.40
2023-04-08T18:32:53.381Z,13.40
2023-04-08T18:35:20.301Z,13.50
2023-04-08T18:37:47.033Z,13.40
2023-04-08T18:40:13.897Z,13.50
2023-04-08T18:42:40.710Z,13.40
2023-04-08T18:45:07.964Z,13.50
2023-04-08T18:47:34.853Z,13.50
2023-04-08T18:50:01.708Z,13.50
2023-04-08T18:52:29.172Z,13.50
2023-04-08T18:54:56.362Z,13.40
2023-04-08T18:57:23.129Z,13.40
2023-04-08T18:59:49.858Z,13.40
2023-04-08T19:02:16.733Z,13.40
2023-04-08T19:04:43.778Z,13.40
2023-04-08T19:07:11.897Z,13.40
2023-04-08T19:09:40.326Z,13.40
2023-04-08T19:12:09.671Z,13.40
2023-04-08T19:14:37.449Z,13.40
2023-04-08T19:17:04.187Z,13.40
2023-04-08T19:19:31.522Z,13.40
2023-04-08T19:21:58.377Z,13.50
2023-04-08T19:24:25.338Z,13.40
2023-04-08T19:26:53.110Z,13.40
2023-04-08T19:29:22.885Z,13.50
2023-04-08T19:31:49.709Z,13.40
2023-04-08T19:34:22.162Z,13.30
2023-04-08T19:36:49.020Z,13.30
2023-04-08T19:39:16.009Z,13.20
2023-04-08T19:41:42.809Z,13.10
2023-04-08T19:44:09.751Z,13.30
2023-04-08T19:46:37.267Z,13.20
2023-04-08T19:49:04.817Z,13.20
2023-04-08T19:51:32.799Z,13.10
2023-04-08T19:54:02.426Z,13.10
2023-04-08T19:56:33.870Z,13.00
2023-04-08T19:59:01.920Z,12.90
2023-04-08T20:01:29.289Z,12.80
2023-04-08T20:03:56.201Z,12.70
2023-04-08T20:06:23.231Z,12.40
2023-04-08T20:08:54.921Z,12.20
2023-04-08T20:11:21.826Z,12.10
2023-04-08T20:13:49.890Z,12.20
2023-04-08T20:16:17.014Z,12.20
2023-04-08T20:18:43.980Z,12.20
2023-04-08T20:21:13.847Z,12.10
2023-04-08T20:23:44.665Z,11.90
2023-04-08T20:26:13.374Z,12.00
2023-04-08T20:28:42.718Z,11.90
2023-04-08T20:31:09.542Z,11.90
2023-04-08T20:33:43.385Z,11.70
2023-04-08T20:36:14.395Z,11.70
2023-04-08T20:38:42.375Z,11.70
2023-04-08T20:41:09.126Z,11.70
2023-04-08T20:43:35.899Z,11.60
2023-04-08T20:46:02.611Z,11.50
2023-04-08T20:48:29.437Z,11.60
2023-04-08T20:50:57.776Z,11.70
2023-04-08T20:53:26.223Z,11.70
2023-04-08T20:55:53.000Z,11.90
2023-04-08T20:58:19.744Z,11.90
2023-04-08T21:00:47.605Z,11.90
2023-04-08T21:03:17.153Z,11.90
2023-04-08T21:05:44.511Z,11.90
2023-04-08T21:08:11.336Z,11.90
2023-04-08T21:10:40.602Z,11.80
2023-04-08T21:13:07.453Z,11.80
2023-04-08T21:15:34.165Z,11.80
2023-04-08T21:18:00.931Z,11.70
2023-04-08T21:20:27.797Z,11.70
2023-04-08T21:22:54.510Z,11.70
2023-04-08T21:25:21.259Z,11.70
2023-04-08T21:27:49.151Z,11.70
2023-04-08T21:30:17.768Z,11.80
2023-04-08T21:32:44.862Z,11.70
2023-04-08T21:35:11.614Z,11.60
2023-04-08T21:37:38.375Z,11.60
2023-04-08T21:40:08.021Z,11.60
2023-04-08T21:42:34.852Z,11.50
2023-04-08T21:45:01.755Z,11.50
2023-04-08T21:47:28.690Z,11.40
2023-04-08T21:49:56.269Z,11.40
2023-04-08T21:52:23.194Z,11.50
2023-04-08T21:54:51.413Z,11.50
2023-04-08T21:57:18.797Z,11.40
2023-04-08T21:59:45.833Z,11.40
2023-04-08T22:02:12.816Z,11.40
2023-04-08T22:04:39.924Z,11.40
2023-04-08T22:07:06.768Z,11.40
2023-04-08T22:09:33.781Z,11.50
2023-04-08T22:12:02.030Z,11.40
2023-04-08T22:14:28.854Z,11.30
2023-04-08T22:16:55.822Z,11.30
2023-04-08T22:19:22.868Z,11.30
2023-04-08T22:21:53.694Z,11.20
2023-04-08T22:24:21.157Z,11.10
2023-04-08T22:26:48.014Z,11.00
2023-04-08T22:29:14.766Z,11.10
2023-04-08T22:31:41.539Z,11.00
2023-04-08T22:34:08.414Z,11.00
2023-04-08T22:36:35.321Z,11.10
2023-04-08T22:39:02.058Z,11.10
2023-04-08T22:41:28.773Z,11.10
2023-04-08T22:43:55.587Z,11.10
2023-04-08T22:46:22.370Z,11.00
2023-04-08T22:48:49.548Z,11.00
2023-04-08T22:51:16.871Z,11.00
2023-04-08T22:53:43.708Z,11.10
2023-04-08T22:56:10.701Z,11.10
2023-04-08T22:58:37.506Z,11.10
2023-04-08T23:01:12.682Z,11.10
2023-04-08T23:03:39.591Z,11.10
2023-04-08T23:06:06.325Z,11.00
2023-04-08T23:08:33.106Z,11.00
2023-04-08T23:10:59.893Z,11.00
2023-04-08T23:13:28.371Z,11.00
2023-04-08T23:15:55.237Z,11.00
2023-04-08T23:18:22.227Z,11.00
2023-04-08T23:20:54.315Z,11.00
2023-04-08T23:23:24.165Z,11.00
2023-04-08T23:25:54.958Z,11.00
2023-04-08T23:28:22.563Z,11.00
2023-04-08T23:30:49.634Z,11.00
2023-04-08T23:33:16.434Z,11.00
2023-04-08T23:35:43.285Z,11.00
2023-04-08T23:38:10.193Z,11.10
2023-04-08T23:40:37.106Z,11.10
2023-04-08T23:43:04.019Z,11.10
2023-04-08T23:45:30.884Z,11.10
2023-04-08T23:47:57.716Z,11.10
2023-04-08T23:50:24.447Z,11.10
2023-04-08T23:52:52.421Z,11.20
2023-04-08T23:55:21.791Z,11.10
2023-04-08T23:57:50.581Z,11.10
